sensor_id;sensor_type;location;lat;lon;timestamp;pressure;altitude;pressure_sealevel;temperature;humidity
55540;BME280;41384;51.418;7.286;2022-07-01T00:00:54;99798.94;;;18.67;78.18
55540;BME280;41384;51.418;7.286;2022-07-01T00:03:20;99790.13;;;18.72;78.12
55540;BME280;41384;51.418;7.286;2022-07-01T00:05:45;99781.53;;;18.64;77.87
55540;BME280;41384;51.418;7.286;2022-07-01T00:08:12;99784.75;;;18.66;77.72
55540;BME280;41384;51.418;7.286;2022-07-01T00:10:37;99771.75;;;18.27;78.79
55540;BME280;41384;51.418;7.286;2022-07-01T00:13:03;99770.78;;;18.49;77.43
55540;BME280;41384;51.418;7.286;2022-07-01T00:15:28;99772.91;;;18.47;76.76
55540;BME280;41384;51.418;7.286;2022-07-01T00:17:54;99760.78;;;18.29;77.99
55540;BME280;41384;51.418;7.286;2022-07-01T00:20:19;99762.69;;;18.33;78.42
55540;BME280;41384;51.418;7.286;2022-07-01T00:22:45;99762.34;;;18.19;78.15
55540;BME280;41384;51.418;7.286;2022-07-01T00:25:11;99758.56;;;18.10;78.34
55540;BME280;41384;51.418;7.286;2022-07-01T00:27:40;99756.28;;;18.29;78.88
55540;BME280;41384;51.418;7.286;2022-07-01T00:30:09;99767.91;;;18.61;76.95
55540;BME280;41384;51.418;7.286;2022-07-01T00:32:35;99761.63;;;18.34;78.60
55540;BME280;41384;51.418;7.286;2022-07-01T00:35:01;99773.97;;;18.46;76.32
55540;BME280;41384;51.418;7.286;2022-07-01T00:37:26;99778.00;;;18.48;76.34
55540;BME280;41384;51.418;7.286;2022-07-01T00:39:51;99763.53;;;18.44;77.04
55540;BME280;41384;51.418;7.286;2022-07-01T00:42:17;99758.59;;;18.20;78.08
55540;BME280;41384;51.418;7.286;2022-07-01T00:44:42;99762.38;;;18.25;77.94
55540;BME280;41384;51.418;7.286;2022-07-01T00:47:09;99763.50;;;18.34;77.40
55540;BME280;41384;51.418;7.286;2022-07-01T00:49:35;99769.91;;;18.38;76.77
55540;BME280;41384;51.418;7.286;2022-07-01T00:52:02;99769.44;;;18.51;77.04
55540;BME280;41384;51.418;7.286;2022-07-01T00:54:27;99766.75;;;18.46;76.30
55540;BME280;41384;51.418;7.286;2022-07-01T00:56:54;99772.09;;;18.46;76.63
55540;BME280;41384;51.418;7.286;2022-07-01T00:59:21;99781.94;;;18.35;77.75
55540;BME280;41384;51.418;7.286;2022-07-01T01:01:46;99773.97;;;18.46;76.93
55540;BME280;41384;51.418;7.286;2022-07-01T01:04:11;99792.16;;;18.44;77.33
55540;BME280;41384;51.418;7.286;2022-07-01T01:06:37;99796.88;;;18.31;76.01
55540;BME280;41384;51.418;7.286;2022-07-01T01:09:02;99795.19;;;18.15;76.70
55540;BME280;41384;51.418;7.286;2022-07-01T01:11:28;99780.00;;;17.88;79.69
55540;BME280;41384;51.418;7.286;2022-07-01T01:13:53;99797.22;;;18.02;78.84
55540;BME280;41384;51.418;7.286;2022-07-01T01:16:20;99812.88;;;17.93;77.81
55540;BME280;41384;51.418;7.286;2022-07-01T01:18:45;99811.25;;;17.87;79.16
55540;BME280;41384;51.418;7.286;2022-07-01T01:21:11;99805.63;;;17.89;78.05
55540;BME280;41384;51.418;7.286;2022-07-01T01:23:36;99814.56;;;17.72;78.66
55540;BME280;41384;51.418;7.286;2022-07-01T01:26:02;99808.25;;;17.84;78.90
55540;BME280;41384;51.418;7.286;2022-07-01T01:28:27;99808.31;;;17.89;77.79
55540;BME280;41384;51.418;7.286;2022-07-01T01:30:53;99815.09;;;17.69;77.61
55540;BME280;41384;51.418;7.286;2022-07-01T01:33:18;99829.66;;;17.89;77.97
55540;BME280;41384;51.418;7.286;2022-07-01T01:35:44;99834.38;;;17.76;78.81
55540;BME280;41384;51.418;7.286;2022-07-01T01:38:09;99845.88;;;17.77;77.92
55540;BME280;41384;51.418;7.286;2022-07-01T01:40:34;99836.66;;;17.95;77.46
55540;BME280;41384;51.418;7.286;2022-07-01T01:43:00;99852.44;;;17.97;76.98
55540;BME280;41384;51.418;7.286;2022-07-01T01:45:25;99846.03;;;17.98;76.54
55540;BME280;41384;51.418;7.286;2022-07-01T01:47:50;99831.19;;;17.79;76.82
55540;BME280;41384;51.418;7.286;2022-07-01T01:50:16;99833.16;;;17.62;77.35
55540;BME280;41384;51.418;7.286;2022-07-01T01:52:42;99831.06;;;17.64;77.22
55540;BME280;41384;51.418;7.286;2022-07-01T01:55:08;99822.25;;;17.36;81.23
55540;BME280;41384;51.418;7.286;2022-07-01T01:57:34;99831.66;;;17.71;77.56
55540;BME280;41384;51.418;7.286;2022-07-01T01:59:59;99828.88;;;17.61;76.47
55540;BME280;41384;51.418;7.286;2022-07-01T02:02:24;99832.59;;;17.87;76.59
55540;BME280;41384;51.418;7.286;2022-07-01T02:04:50;99841.16;;;17.89;75.97
55540;BME280;41384;51.418;7.286;2022-07-01T02:07:16;99843.09;;;17.99;75.99
55540;BME280;41384;51.418;7.286;2022-07-01T02:09:41;99853.44;;;18.18;75.14
55540;BME280;41384;51.418;7.286;2022-07-01T02:12:07;99854.75;;;18.15;74.83
55540;BME280;41384;51.418;7.286;2022-07-01T02:14:32;99860.88;;;17.56;76.75
55540;BME280;41384;51.418;7.286;2022-07-01T02:16:57;99868.50;;;17.74;77.53
55540;BME280;41384;51.418;7.286;2022-07-01T02:19:23;99862.38;;;17.46;77.41
55540;BME280;41384;51.418;7.286;2022-07-01T02:21:48;99861.59;;;17.24;79.02
55540;BME280;41384;51.418;7.286;2022-07-01T02:24:16;99853.91;;;17.55;77.91
55540;BME280;41384;51.418;7.286;2022-07-01T02:26:42;99860.91;;;17.61;78.00
55540;BME280;41384;51.418;7.286;2022-07-01T02:29:07;99867.81;;;17.84;77.13
55540;BME280;41384;51.418;7.286;2022-07-01T02:31:32;99857.75;;;17.64;77.32
55540;BME280;41384;51.418;7.286;2022-07-01T02:33:58;99858.44;;;17.82;76.10
55540;BME280;41384;51.418;7.286;2022-07-01T02:36:23;99858.78;;;17.90;75.60
55540;BME280;41384;51.418;7.286;2022-07-01T02:38:48;99864.09;;;17.58;76.55
55540;BME280;41384;51.418;7.286;2022-07-01T02:41:13;99872.84;;;17.53;76.10
55540;BME280;41384;51.418;7.286;2022-07-01T02:43:39;99880.84;;;17.53;76.23
55540;BME280;41384;51.418;7.286;2022-07-01T02:46:04;99890.13;;;17.45;76.26
55540;BME280;41384;51.418;7.286;2022-07-01T02:48:29;99890.97;;;17.51;75.84
55540;BME280;41384;51.418;7.286;2022-07-01T02:50:55;99883.22;;;17.49;75.70
55540;BME280;41384;51.418;7.286;2022-07-01T02:53:20;99893.53;;;17.18;76.16
55540;BME280;41384;51.418;7.286;2022-07-01T02:55:46;99892.34;;;17.54;75.29
55540;BME280;41384;51.418;7.286;2022-07-01T02:58:12;99887.56;;;17.56;75.39
55540;BME280;41384;51.418;7.286;2022-07-01T03:00:37;99902.44;;;17.74;74.67
55540;BME280;41384;51.418;7.286;2022-07-01T03:03:03;99908.81;;;17.73;74.89
55540;BME280;41384;51.418;7.286;2022-07-01T03:05:28;99907.00;;;17.78;74.39
55540;BME280;41384;51.418;7.286;2022-07-01T03:07:53;99906.66;;;17.70;74.65
55540;BME280;41384;51.418;7.286;2022-07-01T03:10:19;99917.19;;;17.32;76.82
55540;BME280;41384;51.418;7.286;2022-07-01T03:12:44;99919.06;;;17.59;75.74
55540;BME280;41384;51.418;7.286;2022-07-01T03:15:11;99929.13;;;17.74;74.29
55540;BME280;41384;51.418;7.286;2022-07-01T03:17:39;99935.16;;;17.64;74.70
55540;BME280;41384;51.418;7.286;2022-07-01T03:20:06;99932.16;;;17.60;75.19
55540;BME280;41384;51.418;7.286;2022-07-01T03:22:32;99936.94;;;17.58;74.61
55540;BME280;41384;51.418;7.286;2022-07-01T03:24:58;99942.66;;;17.45;75.82
55540;BME280;41384;51.418;7.286;2022-07-01T03:27:24;99946.03;;;17.35;76.04
55540;BME280;41384;51.418;7.286;2022-07-01T03:29:51;99939.88;;;17.57;75.50
55540;BME280;41384;51.418;7.286;2022-07-01T03:32:17;99947.88;;;17.57;75.00
55540;BME280;41384;51.418;7.286;2022-07-01T03:34:46;99941.31;;;17.42;75.66
55540;BME280;41384;51.418;7.286;2022-07-01T03:37:12;99945.31;;;17.67;74.21
55540;BME280;41384;51.418;7.286;2022-07-01T03:39:39;99946.00;;;17.57;74.50
55540;BME280;41384;51.418;7.286;2022-07-01T03:42:06;99949.59;;;17.68;74.64
55540;BME280;41384;51.418;7.286;2022-07-01T03:44:33;99946.94;;;17.46;75.20
55540;BME280;41384;51.418;7.286;2022-07-01T03:46:58;99948.31;;;17.48;75.01
55540;BME280;41384;51.418;7.286;2022-07-01T03:49:24;99944.16;;;17.58;75.05
55540;BME280;41384;51.418;7.286;2022-07-01T03:51:50;99947.09;;;17.61;74.42
55540;BME280;41384;51.418;7.286;2022-07-01T03:54:15;99944.53;;;17.44;75.99
55540;BME280;41384;51.418;7.286;2022-07-01T03:56:57;99931.66;;;17.63;74.36
55540;BME280;41384;51.418;7.286;2022-07-01T03:59:23;99926.53;;;17.57;74.58
55540;BME280;41384;51.418;7.286;2022-07-01T04:01:48;99935.31;;;17.57;75.30
55540;BME280;41384;51.418;7.286;2022-07-01T04:04:13;99934.16;;;17.48;75.53
55540;BME280;41384;51.418;7.286;2022-07-01T04:06:39;99926.72;;;17.50;76.05
55540;BME280;41384;51.418;7.286;2022-07-01T04:09:04;99929.84;;;17.69;74.61
55540;BME280;41384;51.418;7.286;2022-07-01T04:11:30;99935.41;;;17.40;75.71
55540;BME280;41384;51.418;7.286;2022-07-01T04:13:56;99933.47;;;17.58;75.60
55540;BME280;41384;51.418;7.286;2022-07-01T04:16:21;99925.03;;;17.66;75.03
55540;BME280;41384;51.418;7.286;2022-07-01T04:18:49;99921.13;;;17.52;74.57
55540;BME280;41384;51.418;7.286;2022-07-01T04:21:14;99904.13;;;17.58;75.06
55540;BME280;41384;51.418;7.286;2022-07-01T04:23:58;99906.72;;;17.53;75.83
55540;BME280;41384;51.418;7.286;2022-07-01T04:26:23;99907.84;;;17.57;75.85
55540;BME280;41384;51.418;7.286;2022-07-01T04:28:53;99916.97;;;17.61;75.51
55540;BME280;41384;51.418;7.286;2022-07-01T04:31:20;99912.91;;;17.58;75.61
55540;BME280;41384;51.418;7.286;2022-07-01T04:33:46;99924.00;;;17.72;75.06
55540;BME280;41384;51.418;7.286;2022-07-01T04:36:12;99920.97;;;17.63;75.66
55540;BME280;41384;51.418;7.286;2022-07-01T04:38:37;99923.09;;;17.61;75.72
55540;BME280;41384;51.418;7.286;2022-07-01T04:41:03;99927.47;;;17.45;76.21
55540;BME280;41384;51.418;7.286;2022-07-01T04:43:46;99934.47;;;17.74;75.17
55540;BME280;41384;51.418;7.286;2022-07-01T04:46:12;99941.94;;;17.49;76.24
55540;BME280;41384;51.418;7.286;2022-07-01T04:48:37;99923.72;;;17.69;75.94
55540;BME280;41384;51.418;7.286;2022-07-01T04:51:03;99927.34;;;17.85;74.93
55540;BME280;41384;51.418;7.286;2022-07-01T04:53:28;99927.25;;;17.74;74.96
55540;BME280;41384;51.418;7.286;2022-07-01T04:55:53;99926.03;;;17.87;75.83
55540;BME280;41384;51.418;7.286;2022-07-01T04:58:18;99924.91;;;17.33;76.80
55540;BME280;41384;51.418;7.286;2022-07-01T05:00:44;99936.22;;;17.41;77.21
55540;BME280;41384;51.418;7.286;2022-07-01T05:03:09;99936.06;;;17.75;76.17
55540;BME280;41384;51.418;7.286;2022-07-01T05:05:34;99940.50;;;17.91;75.73
55540;BME280;41384;51.418;7.286;2022-07-01T05:08:00;99931.91;;;17.62;76.07
55540;BME280;41384;51.418;7.286;2022-07-01T05:10:25;99933.09;;;17.49;76.85
55540;BME280;41384;51.418;7.286;2022-07-01T05:12:50;99929.47;;;17.83;75.55
55540;BME280;41384;51.418;7.286;2022-07-01T05:15:15;99933.84;;;17.94;74.87
55540;BME280;41384;51.418;7.286;2022-07-01T05:17:41;99926.69;;;17.72;75.49
55540;BME280;41384;51.418;7.286;2022-07-01T05:20:24;99926.16;;;17.98;74.45
55540;BME280;41384;51.418;7.286;2022-07-01T05:23:08;99927.28;;;18.02;74.19
55540;BME280;41384;51.418;7.286;2022-07-01T05:25:34;99922.81;;;17.85;75.67
55540;BME280;41384;51.418;7.286;2022-07-01T05:27:59;99903.97;;;17.97;74.81
55540;BME280;41384;51.418;7.286;2022-07-01T05:30:24;99901.28;;;17.97;75.05
55540;BME280;41384;51.418;7.286;2022-07-01T05:32:50;99894.59;;;17.94;75.11
55540;BME280;41384;51.418;7.286;2022-07-01T05:35:15;99899.34;;;18.15;73.98
55540;BME280;41384;51.418;7.286;2022-07-01T05:37:41;99899.00;;;18.06;74.39
55540;BME280;41384;51.418;7.286;2022-07-01T05:40:07;99899.94;;;18.22;73.97
55540;BME280;41384;51.418;7.286;2022-07-01T05:42:33;99902.69;;;18.32;73.40
55540;BME280;41384;51.418;7.286;2022-07-01T05:44:58;99911.22;;;18.29;73.17
55540;BME280;41384;51.418;7.286;2022-07-01T05:47:23;99920.03;;;18.30;73.21
55540;BME280;41384;51.418;7.286;2022-07-01T05:49:49;99923.16;;;17.94;74.44
55540;BME280;41384;51.418;7.286;2022-07-01T05:52:14;99932.44;;;17.86;75.30
55540;BME280;41384;51.418;7.286;2022-07-01T05:54:39;99934.50;;;17.79;75.67
55540;BME280;41384;51.418;7.286;2022-07-01T05:57:05;99938.50;;;18.04;74.45
55540;BME280;41384;51.418;7.286;2022-07-01T05:59:30;99945.91;;;18.24;73.77
55540;BME280;41384;51.418;7.286;2022-07-01T06:01:55;99935.44;;;17.95;75.16
55540;BME280;41384;51.418;7.286;2022-07-01T06:04:20;99939.09;;;17.84;75.61
55540;BME280;41384;51.418;7.286;2022-07-01T06:06:46;99954.16;;;17.95;75.88
55540;BME280;41384;51.418;7.286;2022-07-01T06:09:11;99955.88;;;18.06;74.67
55540;BME280;41384;51.418;7.286;2022-07-01T06:11:36;99956.25;;;18.15;73.99
55540;BME280;41384;51.418;7.286;2022-07-01T06:14:02;99958.50;;;18.29;73.53
55540;BME280;41384;51.418;7.286;2022-07-01T06:16:27;99961.22;;;18.06;74.13
55540;BME280;41384;51.418;7.286;2022-07-01T06:18:52;99971.75;;;18.18;72.85
55540;BME280;41384;51.418;7.286;2022-07-01T06:21:18;99987.00;;;18.18;72.87
55540;BME280;41384;51.418;7.286;2022-07-01T06:23:43;100002.38;;;17.83;74.94
55540;BME280;41384;51.418;7.286;2022-07-01T06:26:10;99992.06;;;18.19;73.19
55540;BME280;41384;51.418;7.286;2022-07-01T06:28:36;99991.19;;;18.41;72.31
55540;BME280;41384;51.418;7.286;2022-07-01T06:31:01;99982.75;;;18.22;72.66
55540;BME280;41384;51.418;7.286;2022-07-01T06:33:26;99979.78;;;18.51;71.90
55540;BME280;41384;51.418;7.286;2022-07-01T06:35:55;99970.84;;;18.35;71.52
55540;BME280;41384;51.418;7.286;2022-07-01T06:38:20;99972.84;;;18.50;71.83
55540;BME280;41384;51.418;7.286;2022-07-01T06:40:45;99986.75;;;18.52;71.28
55540;BME280;41384;51.418;7.286;2022-07-01T06:43:30;99993.75;;;18.58;70.54
55540;BME280;41384;51.418;7.286;2022-07-01T06:45:56;99989.38;;;18.47;70.76
55540;BME280;41384;51.418;7.286;2022-07-01T06:48:21;100001.84;;;18.69;71.08
55540;BME280;41384;51.418;7.286;2022-07-01T06:50:46;99993.16;;;18.84;69.77
55540;BME280;41384;51.418;7.286;2022-07-01T06:53:12;99995.88;;;18.94;69.84
55540;BME280;41384;51.418;7.286;2022-07-01T06:55:37;99999.25;;;18.79;69.97
55540;BME280;41384;51.418;7.286;2022-07-01T06:58:02;99996.53;;;18.74;70.44
55540;BME280;41384;51.418;7.286;2022-07-01T07:00:29;100001.44;;;18.87;69.83
55540;BME280;41384;51.418;7.286;2022-07-01T07:02:54;100006.81;;;18.92;68.90
55540;BME280;41384;51.418;7.286;2022-07-01T07:05:19;100007.31;;;18.84;69.48
55540;BME280;41384;51.418;7.286;2022-07-01T07:07:45;100004.34;;;18.80;70.52
55540;BME280;41384;51.418;7.286;2022-07-01T07:10:10;100001.84;;;19.01;68.87
55540;BME280;41384;51.418;7.286;2022-07-01T07:12:35;100000.19;;;18.62;69.94
55540;BME280;41384;51.418;7.286;2022-07-01T07:15:00;100022.66;;;18.34;71.26
55540;BME280;41384;51.418;7.286;2022-07-01T07:17:26;100027.69;;;18.25;72.08
55540;BME280;41384;51.418;7.286;2022-07-01T07:19:51;100022.25;;;18.47;70.91
55540;BME280;41384;51.418;7.286;2022-07-01T07:22:18;100016.28;;;18.67;69.71
55540;BME280;41384;51.418;7.286;2022-07-01T07:24:43;100028.06;;;18.39;70.17
55540;BME280;41384;51.418;7.286;2022-07-01T07:27:09;100023.31;;;18.46;70.72
55540;BME280;41384;51.418;7.286;2022-07-01T07:29:34;100017.56;;;18.60;69.57
55540;BME280;41384;51.418;7.286;2022-07-01T07:31:59;100017.50;;;18.55;70.09
55540;BME280;41384;51.418;7.286;2022-07-01T07:34:24;100025.41;;;18.72;69.17
55540;BME280;41384;51.418;7.286;2022-07-01T07:36:50;100023.28;;;19.06;67.55
55540;BME280;41384;51.418;7.286;2022-07-01T07:39:15;100007.78;;;19.67;65.24
55540;BME280;41384;51.418;7.286;2022-07-01T07:41:40;100009.97;;;19.80;65.03
55540;BME280;41384;51.418;7.286;2022-07-01T07:44:06;100022.56;;;18.84;67.96
55540;BME280;41384;51.418;7.286;2022-07-01T07:46:31;100028.91;;;19.05;67.61
55540;BME280;41384;51.418;7.286;2022-07-01T07:48:56;100026.94;;;19.38;67.08
55540;BME280;41384;51.418;7.286;2022-07-01T07:51:21;100032.16;;;19.12;67.87
55540;BME280;41384;51.418;7.286;2022-07-01T07:53:48;100032.81;;;19.35;66.97
55540;BME280;41384;51.418;7.286;2022-07-01T07:56:13;100029.44;;;19.55;65.06
55540;BME280;41384;51.418;7.286;2022-07-01T07:58:38;100036.84;;;19.91;64.26
55540;BME280;41384;51.418;7.286;2022-07-01T08:01:07;100044.91;;;20.06;62.89
55540;BME280;41384;51.418;7.286;2022-07-01T08:03:32;100049.44;;;19.95;63.11
55540;BME280;41384;51.418;7.286;2022-07-01T08:05:59;100033.00;;;19.81;62.52
55540;BME280;41384;51.418;7.286;2022-07-01T08:08:24;100035.56;;;20.19;61.91
55540;BME280;41384;51.418;7.286;2022-07-01T08:10:50;100039.09;;;20.61;60.46
55540;BME280;41384;51.418;7.286;2022-07-01T08:13:15;100027.22;;;20.00;61.09
55540;BME280;41384;51.418;7.286;2022-07-01T08:15:40;100031.56;;;20.22;60.85
55540;BME280;41384;51.418;7.286;2022-07-01T08:18:08;100039.31;;;19.49;62.09
55540;BME280;41384;51.418;7.286;2022-07-01T08:20:33;100042.59;;;19.67;62.60
55540;BME280;41384;51.418;7.286;2022-07-01T08:22:59;100033.09;;;19.92;62.80
55540;BME280;41384;51.418;7.286;2022-07-01T08:25:24;100037.03;;;19.84;62.62
55540;BME280;41384;51.418;7.286;2022-07-01T08:27:49;100053.22;;;20.15;60.99
55540;BME280;41384;51.418;7.286;2022-07-01T08:30:14;100057.13;;;19.87;61.30
55540;BME280;41384;51.418;7.286;2022-07-01T08:32:40;100071.22;;;20.20;59.88
55540;BME280;41384;51.418;7.286;2022-07-01T08:35:05;100081.41;;;20.28;59.72
55540;BME280;41384;51.418;7.286;2022-07-01T08:37:31;100072.59;;;20.38;60.05
55540;BME280;41384;51.418;7.286;2022-07-01T08:39:56;100074.63;;;20.05;60.21
55540;BME280;41384;51.418;7.286;2022-07-01T08:42:21;100087.78;;;20.06;60.45
55540;BME280;41384;51.418;7.286;2022-07-01T08:44:46;100092.59;;;19.99;60.31
55540;BME280;41384;51.418;7.286;2022-07-01T08:47:12;100092.09;;;20.12;59.83
55540;BME280;41384;51.418;7.286;2022-07-01T08:49:38;100095.59;;;20.29;60.50
55540;BME280;41384;51.418;7.286;2022-07-01T08:52:04;100099.16;;;20.55;58.65
55540;BME280;41384;51.418;7.286;2022-07-01T08:54:29;100098.09;;;20.71;57.02
55540;BME280;41384;51.418;7.286;2022-07-01T08:56:54;100087.41;;;20.97;55.99
55540;BME280;41384;51.418;7.286;2022-07-01T08:59:25;100095.88;;;21.82;54.04
55540;BME280;41384;51.418;7.286;2022-07-01T09:02:00;100101.78;;;21.58;52.65
55540;BME280;41384;51.418;7.286;2022-07-01T09:04:27;100109.59;;;21.70;53.52
55540;BME280;41384;51.418;7.286;2022-07-01T09:07:00;100109.88;;;21.69;53.38
55540;BME280;41384;51.418;7.286;2022-07-01T09:09:25;100103.09;;;21.87;53.94
55540;BME280;41384;51.418;7.286;2022-07-01T09:11:53;100113.13;;;21.35;53.92
55540;BME280;41384;51.418;7.286;2022-07-01T09:14:32;100105.06;;;21.35;53.50
55540;BME280;41384;51.418;7.286;2022-07-01T09:17:03;100105.63;;;21.37;53.15
55540;BME280;41384;51.418;7.286;2022-07-01T09:19:35;100105.66;;;21.01;54.66
55540;BME280;41384;51.418;7.286;2022-07-01T09:22:02;100095.44;;;21.18;54.57
55540;BME280;41384;51.418;7.286;2022-07-01T09:24:40;100081.38;;;21.63;52.64
55540;BME280;41384;51.418;7.286;2022-07-01T09:27:09;100086.16;;;21.92;52.94
55540;BME280;41384;51.418;7.286;2022-07-01T09:29:46;100079.03;;;21.40;52.85
55540;BME280;41384;51.418;7.286;2022-07-01T09:32:13;100081.94;;;21.54;53.03
55540;BME280;41384;51.418;7.286;2022-07-01T09:34:45;100082.47;;;21.56;52.33
55540;BME280;41384;51.418;7.286;2022-07-01T09:37:15;100087.38;;;21.34;52.08
55540;BME280;41384;51.418;7.286;2022-07-01T09:39:47;100087.41;;;21.13;53.00
55540;BME280;41384;51.418;7.286;2022-07-01T09:42:13;100090.63;;;20.99;54.14
55540;BME280;41384;51.418;7.286;2022-07-01T09:45:00;100093.84;;;21.17;53.97
55540;BME280;41384;51.418;7.286;2022-07-01T09:47:28;100097.84;;;21.14;55.05
55540;BME280;41384;51.418;7.286;2022-07-01T09:49:55;100093.81;;;21.22;53.15
55540;BME280;41384;51.418;7.286;2022-07-01T09:52:21;100089.81;;;20.99;51.32
55540;BME280;41384;51.418;7.286;2022-07-01T09:54:48;100097.63;;;20.95;52.15
55540;BME280;41384;51.418;7.286;2022-07-01T09:57:14;100095.19;;;21.25;52.16
55540;BME280;41384;51.418;7.286;2022-07-01T09:59:39;100090.88;;;21.34;51.08
55540;BME280;41384;51.418;7.286;2022-07-01T10:02:07;100083.31;;;21.52;50.40
55540;BME280;41384;51.418;7.286;2022-07-01T10:04:34;100092.44;;;21.51;51.82
55540;BME280;41384;51.418;7.286;2022-07-01T10:07:13;100089.50;;;21.37;51.67
55540;BME280;41384;51.418;7.286;2022-07-01T10:10:22;100093.63;;;22.00;50.30
55540;BME280;41384;51.418;7.286;2022-07-01T10:12:54;100085.34;;;22.41;49.53
55540;BME280;41384;51.418;7.286;2022-07-01T10:15:20;100090.00;;;22.30;49.47
55540;BME280;41384;51.418;7.286;2022-07-01T10:17:48;100098.97;;;22.10;49.25
55540;BME280;41384;51.418;7.286;2022-07-01T10:20:15;100112.47;;;21.95;49.41
55540;BME280;41384;51.418;7.286;2022-07-01T10:22:42;100103.47;;;22.25;49.57
55540;BME280;41384;51.418;7.286;2022-07-01T10:25:31;100108.81;;;22.76;48.55
55540;BME280;41384;51.418;7.286;2022-07-01T10:30:57;100110.72;;;22.25;49.10
55540;BME280;41384;51.418;7.286;2022-07-01T10:33:47;100116.72;;;22.06;49.18
55540;BME280;41384;51.418;7.286;2022-07-01T10:41:29;100117.59;;;22.47;48.10
55540;BME280;41384;51.418;7.286;2022-07-01T10:43:55;100114.69;;;22.83;47.80
55540;BME280;41384;51.418;7.286;2022-07-01T10:46:48;100114.34;;;22.89;46.65
55540;BME280;41384;51.418;7.286;2022-07-01T10:49:17;100119.34;;;22.67;47.10
55540;BME280;41384;51.418;7.286;2022-07-01T10:51:57;100121.63;;;22.49;48.00
55540;BME280;41384;51.418;7.286;2022-07-01T10:59:42;100118.38;;;22.52;47.99
55540;BME280;41384;51.418;7.286;2022-07-01T11:02:37;100115.91;;;22.06;48.63
55540;BME280;41384;51.418;7.286;2022-07-01T11:05:14;100110.72;;;22.20;48.33
55540;BME280;41384;51.418;7.286;2022-07-01T11:07:43;100100.97;;;22.79;47.24
55540;BME280;41384;51.418;7.286;2022-07-01T11:10:14;100105.81;;;23.12;46.18
55540;BME280;41384;51.418;7.286;2022-07-01T11:12:41;100111.19;;;23.12;44.85
55540;BME280;41384;51.418;7.286;2022-07-01T11:15:09;100105.75;;;24.00;41.70
55540;BME280;41384;51.418;7.286;2022-07-01T11:17:42;100094.19;;;23.95;41.65
55540;BME280;41384;51.418;7.286;2022-07-01T11:20:08;100107.34;;;23.77;40.49
55540;BME280;41384;51.418;7.286;2022-07-01T11:22:34;100113.16;;;23.36;41.58
55540;BME280;41384;51.418;7.286;2022-07-01T11:25:02;100104.41;;;23.20;41.35
55540;BME280;41384;51.418;7.286;2022-07-01T11:27:29;100100.13;;;23.48;41.17
55540;BME280;41384;51.418;7.286;2022-07-01T11:29:59;100109.19;;;23.57;40.01
55540;BME280;41384;51.418;7.286;2022-07-01T11:32:33;100093.34;;;24.57;39.21
55540;BME280;41384;51.418;7.286;2022-07-01T11:35:00;100098.94;;;25.13;38.63
55540;BME280;41384;51.418;7.286;2022-07-01T11:37:28;100096.47;;;24.83;38.37
55540;BME280;41384;51.418;7.286;2022-07-01T11:40:13;100088.81;;;24.71;38.66
55540;BME280;41384;51.418;7.286;2022-07-01T11:42:39;100095.97;;;24.24;39.53
55540;BME280;41384;51.418;7.286;2022-07-01T11:45:06;100093.94;;;24.34;38.66
55540;BME280;41384;51.418;7.286;2022-07-01T11:47:31;100091.69;;;24.03;39.04
55540;BME280;41384;51.418;7.286;2022-07-01T11:49:58;100088.16;;;24.03;39.27
55540;BME280;41384;51.418;7.286;2022-07-01T11:52:24;100084.78;;;24.88;37.63
55540;BME280;41384;51.418;7.286;2022-07-01T11:54:54;100088.47;;;24.59;37.94
55540;BME280;41384;51.418;7.286;2022-07-01T11:57:22;100081.91;;;24.98;37.77
55540;BME280;41384;51.418;7.286;2022-07-01T11:59:49;100086.19;;;25.32;37.13
55540;BME280;41384;51.418;7.286;2022-07-01T12:02:16;100093.78;;;25.44;36.32
55540;BME280;41384;51.418;7.286;2022-07-01T12:04:43;100106.84;;;25.70;35.27
55540;BME280;41384;51.418;7.286;2022-07-01T12:07:10;100097.50;;;25.01;35.34
55540;BME280;41384;51.418;7.286;2022-07-01T12:09:36;100101.91;;;24.97;35.48
55540;BME280;41384;51.418;7.286;2022-07-01T12:12:02;100102.81;;;25.06;35.58
55540;BME280;41384;51.418;7.286;2022-07-01T12:14:31;100111.16;;;24.39;37.18
55540;BME280;41384;51.418;7.286;2022-07-01T12:16:58;100102.25;;;24.76;37.06
55540;BME280;41384;51.418;7.286;2022-07-01T12:21:58;100096.09;;;25.93;35.07
55540;BME280;41384;51.418;7.286;2022-07-01T12:24:24;100099.56;;;26.07;35.01
55540;BME280;41384;51.418;7.286;2022-07-01T12:27:01;100099.88;;;26.43;36.22
55540;BME280;41384;51.418;7.286;2022-07-01T12:29:30;100097.88;;;26.71;34.10
55540;BME280;41384;51.418;7.286;2022-07-01T12:32:01;100101.69;;;27.16;34.02
55540;BME280;41384;51.418;7.286;2022-07-01T12:34:44;100103.63;;;26.92;34.43
55540;BME280;41384;51.418;7.286;2022-07-01T12:37:19;100106.38;;;26.19;35.01
55540;BME280;41384;51.418;7.286;2022-07-01T12:39:45;100111.34;;;25.14;36.42
55540;BME280;41384;51.418;7.286;2022-07-01T12:42:28;100100.94;;;25.07;37.27
55540;BME280;41384;51.418;7.286;2022-07-01T12:44:55;100101.41;;;24.95;37.40
55540;BME280;41384;51.418;7.286;2022-07-01T12:47:23;100102.91;;;24.49;37.60
55540;BME280;41384;51.418;7.286;2022-07-01T12:49:49;100099.28;;;25.39;36.47
55540;BME280;41384;51.418;7.286;2022-07-01T12:52:27;100098.16;;;26.47;34.53
55540;BME280;41384;51.418;7.286;2022-07-01T12:54:56;100095.28;;;25.92;34.37
55540;BME280;41384;51.418;7.286;2022-07-01T12:57:29;100098.16;;;25.12;36.80
55540;BME280;41384;51.418;7.286;2022-07-01T12:59:55;100108.09;;;24.45;36.86
55540;BME280;41384;51.418;7.286;2022-07-01T13:02:21;100098.47;;;25.39;36.25
55540;BME280;41384;51.418;7.286;2022-07-01T13:04:46;100107.50;;;25.90;35.81
55540;BME280;41384;51.418;7.286;2022-07-01T13:07:11;100107.88;;;24.80;36.68
55540;BME280;41384;51.418;7.286;2022-07-01T13:09:36;100100.78;;;24.65;36.62
55540;BME280;41384;51.418;7.286;2022-07-01T13:12:02;100094.06;;;24.82;36.90